createdAt,value
2023-03-26T00:02:06.423Z,3.65
2023-03-26T00:04:34.722Z,3.47
2023-03-26T00:07:03.503Z,3.60
2023-03-26T00:09:31.773Z,3.60
2023-03-26T00:11:59.647Z,3.58
2023-03-26T00:14:27.548Z,3.17
2023-03-26T00:16:55.376Z,3.30
2023-03-26T00:19:23.321Z,3.30
2023-03-26T00:21:52.182Z,3.25
2023-03-26T00:24:20.323Z,3.00
2023-03-26T00:26:53.694Z,2.90
2023-03-26T00:29:23.282Z,2.80
2023-03-26T00:31:51.270Z,2.67
2023-03-26T00:34:20.271Z,2.60
2023-03-26T00:36:48.335Z,2.65
2023-03-26T00:39:18.267Z,2.72
2023-03-26T00:41:47.139Z,2.72
2023-03-26T00:44:14.886Z,2.70
2023-03-26T00:46:43.117Z,2.80
2023-03-26T00:49:15.048Z,2.72
2023-03-26T00:51:43.380Z,2.90
2023-03-26T00:54:12.143Z,3.05
2023-03-26T00:56:43.352Z,2.80
2023-03-26T00:59:11.531Z,3.22
2023-03-26T01:01:40.190Z,2.85
2023-03-26T01:04:24.705Z,2.90
2023-03-26T01:06:54.657Z,2.90
2023-03-26T01:09:27.065Z,2.70
2023-03-26T01:11:55.142Z,2.70
2023-03-26T01:14:29.636Z,2.70
2023-03-26T01:17:00.780Z,2.80
2023-03-26T01:19:47.732Z,2.60
2023-03-26T01:22:25.086Z,2.60
2023-03-26T01:24:54.202Z,2.53
2023-03-26T01:27:36.323Z,2.63
2023-03-26T01:30:22.776Z,2.35
2023-03-26T01:33:34.217Z,2.38
2023-03-26T01:36:38.674Z,2.67
2023-03-26T01:39:31.264Z,2.33
2023-03-26T01:42:04.886Z,2.03
2023-03-26T01:44:45.424Z,2.40
2023-03-26T01:47:15.793Z,2.33
2023-03-26T01:49:43.792Z,2.30
2023-03-26T01:52:19.992Z,2.42
2023-03-26T01:54:50.727Z,2.65
2023-03-26T01:57:32.292Z,2.40
2023-03-26T02:00:34.127Z,2.50
2023-03-26T02:03:18.406Z,2.30
2023-03-26T02:05:56.948Z,2.45
2023-03-26T02:08:39.337Z,2.33
2023-03-26T02:11:11.849Z,2.45
2023-03-26T02:13:42.209Z,2.20
2023-03-26T02:16:17.040Z,2.30
2023-03-26T02:18:48.068Z,2.30
2023-03-26T02:21:22.088Z,2.30
2023-03-26T02:24:03.632Z,2.28
2023-03-26T02:26:38.322Z,2.30
2023-03-26T02:29:20.859Z,2.33
2023-03-26T02:31:50.822Z,2.08
2023-03-26T02:34:19.139Z,1.90
2023-03-26T02:36:51.680Z,1.80
2023-03-26T02:39:23.507Z,1.52
2023-03-26T02:42:03.499Z,1.90
2023-03-26T02:44:35.429Z,2.10
2023-03-26T02:47:03.277Z,2.20
2023-03-26T02:49:34.318Z,2.00
2023-03-26T02:52:06.954Z,1.98
2023-03-26T02:54:37.592Z,2.10
2023-03-26T02:57:20.596Z,2.05
2023-03-26T03:00:00.239Z,2.20
2023-03-26T03:02:40.405Z,1.77
2023-03-26T03:05:27.061Z,1.90
2023-03-26T03:08:24.031Z,1.80
2023-03-26T03:11:07.763Z,1.83
2023-03-26T03:13:44.993Z,1.88
2023-03-26T03:16:17.393Z,2.05
2023-03-26T03:18:45.367Z,1.98
2023-03-26T03:21:13.416Z,2.10
2023-03-26T03:23:41.643Z,2.00
2023-03-26T03:26:16.736Z,2.00
2023-03-26T03:28:52.248Z,2.08
2023-03-26T03:31:20.481Z,1.90
2023-03-26T03:33:48.455Z,2.00
2023-03-26T03:36:22.557Z,2.10
2023-03-26T03:39:06.791Z,2.13
2023-03-26T03:41:36.313Z,2.10
2023-03-26T03:44:08.200Z,2.10
2023-03-26T03:46:36.583Z,2.27
2023-03-26T03:49:04.812Z,2.08
2023-03-26T03:51:36.858Z,2.13
2023-03-26T03:54:12.158Z,2.15
2023-03-26T03:56:46.079Z,2.20
2023-03-26T03:59:33.314Z,2.80
2023-03-26T04:02:04.673Z,2.85
2023-03-26T04:04:40.374Z,3.42
2023-03-26T04:07:12.822Z,2.70
2023-03-26T04:10:17.810Z,2.90
2023-03-26T04:13:14.299Z,2.40
2023-03-26T04:16:01.062Z,2.30
2023-03-26T04:18:33.561Z,2.33
2023-03-26T04:21:13.163Z,2.25
2023-03-26T04:23:42.683Z,2.15
2023-03-26T04:26:31.513Z,2.40
2023-03-26T04:29:08.535Z,2.55
2023-03-26T04:31:39.178Z,1.95
2023-03-26T04:34:14.585Z,2.00
2023-03-26T04:36:56.542Z,1.90
2023-03-26T04:39:30.315Z,1.90
2023-03-26T04:42:20.247Z,1.73
2023-03-26T04:45:17.965Z,1.80
2023-03-26T04:47:50.708Z,1.83
2023-03-26T04:50:18.838Z,1.95
2023-03-26T04:52:46.897Z,2.03
2023-03-26T04:55:59.578Z,1.90
2023-03-26T04:58:48.357Z,1.90
2023-03-26T05:01:18.005Z,1.65
2023-03-26T05:03:47.172Z,2.03
2023-03-26T05:06:18.168Z,1.83
2023-03-26T05:08:47.188Z,1.80
2023-03-26T05:11:31.255Z,1.80
2023-03-26T05:13:59.398Z,1.90
2023-03-26T05:16:28.282Z,2.20
2023-03-26T05:19:01.096Z,2.10
2023-03-26T05:21:33.395Z,1.90
2023-03-26T05:24:02.632Z,1.90
2023-03-26T05:26:30.717Z,2.38
2023-03-26T05:28:59.472Z,1.95
2023-03-26T05:31:33.402Z,2.23
2023-03-26T05:34:02.992Z,1.90
2023-03-26T05:36:30.924Z,2.10
2023-03-26T05:39:27.216Z,2.20
2023-03-26T05:42:04.114Z,2.45
2023-03-26T05:44:52.148Z,2.10
2023-03-26T05:47:27.667Z,2.20
2023-03-26T05:49:56.206Z,1.90
2023-03-26T05:52:24.330Z,1.98
2023-03-26T05:55:24.678Z,2.05
2023-03-26T05:58:10.684Z,2.00
2023-03-26T06:00:58.839Z,1.93
2023-03-26T06:03:40.637Z,1.92
2023-03-26T06:06:21.014Z,1.90
2023-03-26T06:09:02.031Z,1.88
2023-03-26T06:11:32.959Z,2.08
2023-03-26T06:14:03.426Z,2.40
2023-03-26T06:16:32.677Z,2.50
2023-03-26T06:19:26.843Z,2.55
2023-03-26T06:22:02.468Z,2.55
2023-03-26T06:24:48.739Z,2.53
2023-03-26T06:27:34.973Z,2.80
2023-03-26T06:30:22.931Z,2.80
2023-03-26T06:33:13.691Z,2.30
2023-03-26T06:35:50.498Z,2.67
2023-03-26T06:38:18.953Z,2.70
2023-03-26T06:40:46.912Z,2.37
2023-03-26T06:43:27.019Z,2.30
2023-03-26T06:46:15.806Z,2.20
2023-03-26T06:49:16.016Z,2.03
2023-03-26T06:52:03.559Z,1.92
2023-03-26T06:54:53.860Z,2.10
2023-03-26T06:58:00.410Z,1.80
2023-03-26T07:00:47.561Z,1.85
2023-03-26T07:03:34.052Z,2.20
2023-03-26T07:06:20.862Z,2.20
2023-03-26T07:09:07.425Z,1.90
2023-03-26T07:12:07.998Z,2.10
2023-03-26T07:14:54.678Z,1.88
2023-03-26T07:17:42.808Z,1.80
2023-03-26T07:20:22.792Z,1.70
2023-03-26T07:22:51.631Z,1.80
2023-03-26T07:25:54.966Z,1.77
2023-03-26T07:29:04.701Z,2.10
2023-03-26T07:32:21.975Z,2.50
2023-03-26T07:35:13.032Z,2.75
2023-03-26T07:38:42.953Z,3.20
2023-03-26T07:41:50.151Z,3.25
2023-03-26T07:44:47.416Z,3.47
2023-03-26T07:47:32.925Z,2.83
2023-03-26T07:50:22.011Z,2.53
2023-03-26T07:53:08.617Z,2.00
2023-03-26T07:56:03.464Z,2.40
2023-03-26T07:58:57.366Z,2.28
2023-03-26T08:02:02.695Z,2.53
2023-03-26T08:04:55.953Z,2.38
2023-03-26T08:08:08.340Z,3.00
2023-03-26T08:11:09.116Z,2.80
2023-03-26T08:14:25.019Z,2.83
2023-03-26T08:17:02.726Z,2.95
2023-03-26T08:19:58.639Z,3.25
2023-03-26T08:22:38.816Z,3.20
2023-03-26T08:25:19.160Z,3.10
2023-03-26T08:27:59.502Z,2.50
2023-03-26T08:30:28.430Z,3.00
2023-03-26T08:33:05.717Z,3.03
2023-03-26T08:35:35.630Z,2.90
2023-03-26T08:38:03.963Z,3.28
2023-03-26T08:40:57.813Z,3.05
2023-03-26T08:43:55.559Z,3.03
2023-03-26T08:47:04.998Z,2.40
2023-03-26T08:49:47.680Z,2.20
2023-03-26T08:52:54.406Z,2.05
2023-03-26T08:56:02.545Z,2.25
2023-03-26T08:59:09.838Z,2.00
2023-03-26T09:01:49.508Z,2.28
2023-03-26T09:04:38.951Z,2.37
2023-03-26T09:07:28.390Z,2.85
2023-03-26T09:10:15.067Z,3.40
2023-03-26T09:12:51.849Z,5.35
2023-03-26T09:15:29.163Z,2.67
2023-03-26T09:18:18.510Z,2.00
2023-03-26T09:21:07.768Z,2.40
2023-03-26T09:24:07.983Z,4.50
2023-03-26T09:26:38.830Z,3.63
2023-03-26T09:29:32.392Z,3.97
2023-03-26T09:32:19.510Z,5.10
2023-03-26T09:35:24.574Z,2.55
2023-03-26T09:37:59.692Z,3.17
2023-03-26T09:40:59.195Z,2.53
2023-03-26T09:43:54.983Z,2.17
2023-03-26T09:46:31.970Z,2.77
2023-03-26T09:49:09.713Z,2.80
2023-03-26T09:52:27.634Z,2.20
2023-03-26T09:55:29.137Z,1.95
2023-03-26T09:58:09.093Z,2.80
2023-03-26T10:01:04.384Z,2.87
2023-03-26T10:04:00.130Z,2.80
2023-03-26T10:07:01.082Z,7.28
2023-03-26T10:09:34.984Z,2.67
2023-03-26T10:12:10.789Z,3.00
2023-03-26T10:15:25.091Z,3.20
2023-03-26T10:18:27.090Z,2.65
2023-03-26T10:21:16.112Z,3.03
2023-03-26T10:24:10.933Z,2.80
2023-03-26T10:27:10.797Z,3.00
2023-03-26T10:30:10.481Z,2.63
2023-03-26T10:33:15.146Z,3.13
2023-03-26T10:35:43.345Z,2.95
2023-03-26T10:38:22.123Z,3.10
2023-03-26T10:41:01.339Z,3.08
2023-03-26T10:43:54.622Z,3.20
2023-03-26T10:46:57.283Z,2.97
2023-03-26T10:49:27.914Z,2.80
2023-03-26T10:52:01.763Z,3.00
2023-03-26T10:54:50.279Z,3.42
2023-03-26T10:57:30.832Z,3.20
2023-03-26T11:00:23.772Z,3.17
2023-03-26T11:03:09.688Z,2.63
2023-03-26T11:06:18.757Z,3.88
2023-03-26T11:08:58.206Z,6.90
2023-03-26T11:11:53.307Z,4.90
2023-03-26T11:14:38.643Z,6.60
2023-03-26T11:17:40.795Z,13.85
2023-03-26T11:20:27.734Z,11.65
2023-03-26T11:23:08.555Z,5.75
2023-03-26T11:26:18.108Z,3.97
2023-03-26T11:29:32.384Z,4.63
2023-03-26T11:32:41.505Z,4.28
2023-03-26T11:35:40.279Z,2.75
2023-03-26T11:38:54.581Z,2.92
2023-03-26T11:41:32.085Z,2.80
2023-03-26T11:44:26.985Z,3.70
2023-03-26T11:46:59.196Z,4.50
2023-03-26T11:49:30.231Z,5.45
2023-03-26T11:52:01.505Z,4.57
2023-03-26T11:54:29.870Z,3.07
2023-03-26T11:57:10.143Z,3.17
2023-03-26T11:59:57.240Z,3.22
2023-03-26T12:02:34.500Z,2.60
2023-03-26T12:05:26.925Z,2.45
2023-03-26T12:08:00.698Z,2.40
2023-03-26T12:10:35.276Z,2.53
2023-03-26T12:13:38.129Z,2.50
2023-03-26T12:16:14.913Z,2.40
2023-03-26T12:18:45.693Z,2.60
2023-03-26T12:21:17.120Z,2.30
2023-03-26T12:24:00.953Z,2.10
2023-03-26T12:26:45.217Z,2.10
2023-03-26T12:29:19.429Z,2.28
2023-03-26T12:31:55.828Z,2.10
2023-03-26T12:34:35.809Z,2.30
2023-03-26T12:37:06.119Z,2.70
2023-03-26T12:40:09.552Z,3.42
2023-03-26T12:44:50.936Z,2.55
2023-03-26T12:45:28.865Z,2.38
2023-03-26T12:48:03.980Z,2.87
2023-03-26T12:50:58.026Z,4.65
2023-03-26T12:53:52.685Z,3.25
2023-03-26T12:56:37.117Z,3.47
2023-03-26T12:59:18.739Z,2.00
2023-03-26T13:02:04.773Z,2.20
2023-03-26T13:05:06.252Z,1.83
2023-03-26T13:07:44.379Z,2.20
2023-03-26T13:10:31.224Z,2.15
2023-03-26T13:13:39.229Z,1.90
2023-03-26T13:16:28.031Z,2.17
2023-03-26T13:19:15.408Z,2.30
2023-03-26T13:21:53.724Z,2.60
2023-03-26T13:24:49.470Z,2.25
2023-03-26T13:27:28.986Z,2.40
2023-03-26T13:30:37.417Z,2.50
2023-03-26T13:33:32.315Z,3.72
2023-03-26T13:36:23.961Z,2.25
2023-03-26T13:39:17.321Z,2.35
2023-03-26T13:41:53.430Z,1.90
2023-03-26T13:45:04.886Z,2.07
2023-03-26T13:47:42.434Z,1.98
2023-03-26T13:50:16.588Z,1.77
2023-03-26T13:53:07.479Z,1.70
2023-03-26T13:55:53.620Z,1.92
2023-03-26T13:58:45.231Z,1.90
2023-03-26T14:01:22.212Z,2.15
2023-03-26T14:04:01.653Z,1.90
2023-03-26T14:06:37.246Z,2.92
2023-03-26T14:09:34.222Z,3.40
2023-03-26T14:12:37.758Z,2.53
2023-03-26T14:15:11.743Z,3.70
2023-03-26T14:17:51.345Z,2.40
2023-03-26T14:20:33.614Z,2.17
2023-03-26T14:23:07.156Z,1.88
2023-03-26T14:26:21.149Z,2.00
2023-03-26T14:29:11.004Z,1.77
2023-03-26T14:32:16.053Z,2.10
2023-03-26T14:35:05.760Z,1.90
2023-03-26T14:37:59.309Z,2.20
2023-03-26T14:40:44.453Z,2.20
2023-03-26T14:43:34.049Z,2.03
2023-03-26T14:46:29.628Z,2.15
2023-03-26T14:49:15.361Z,2.10
2023-03-26T14:52:22.807Z,2.30
2023-03-26T14:54:58.060Z,3.33
2023-03-26T14:57:43.807Z,3.00
2023-03-26T15:00:51.408Z,2.20
2023-03-26T15:03:57.010Z,1.70
2023-03-26T15:07:01.424Z,1.90
2023-03-26T15:09:38.942Z,1.90
2023-03-26T15:12:30.260Z,2.35
2023-03-26T15:15:16.346Z,2.10
2023-03-26T15:18:28.536Z,2.10
2023-03-26T15:21:32.363Z,1.80
2023-03-26T15:24:49.338Z,2.10
2023-03-26T15:27:47.678Z,2.00
2023-03-26T15:30:28.825Z,2.38
2023-03-26T15:33:22.984Z,2.72
2023-03-26T15:36:21.960Z,2.30
2023-03-26T15:39:22.029Z,2.20
2023-03-26T15:42:29.596Z,1.92
2023-03-26T15:45:03.711Z,1.90
2023-03-26T15:48:01.524Z,1.67
2023-03-26T15:50:49.217Z,1.95
2023-03-26T15:53:39.406Z,2.00
2023-03-26T15:56:34.956Z,2.00
2023-03-26T15:59:16.898Z,2.35
2023-03-26T16:02:16.685Z,2.00
2023-03-26T16:05:21.958Z,1.90
2023-03-26T16:08:23.675Z,1.70
2023-03-26T16:10:59.421Z,1.90
2023-03-26T16:13:27.519Z,2.00
2023-03-26T16:15:56.582Z,1.80
2023-03-26T16:18:41.491Z,1.80
2023-03-26T16:21:43.628Z,1.93
2023-03-26T16:24:43.052Z,1.70
2023-03-26T16:27:13.782Z,1.70
2023-03-26T16:30:00.540Z,2.08
2023-03-26T16:32:41.109Z,2.13
2023-03-26T16:35:15.056Z,2.10
2023-03-26T16:37:50.727Z,2.00
2023-03-26T16:40:19.127Z,2.10
2023-03-26T16:43:11.728Z,2.53
2023-03-26T16:45:44.997Z,2.40
2023-03-26T16:48:39.543Z,2.40
2023-03-26T16:51:19.129Z,2.67
2023-03-26T16:54:13.325Z,1.90
2023-03-26T16:56:50.652Z,2.40
2023-03-26T16:59:36.934Z,2.72
2023-03-26T17:02:14.901Z,9.60
2023-03-26T17:04:47.975Z,3.33
2023-03-26T17:07:24.797Z,2.65
2023-03-26T17:10:32.408Z,2.50
2023-03-26T17:13:09.925Z,2.20
2023-03-26T17:15:57.319Z,2.13
2023-03-26T17:18:47.037Z,2.17
2023-03-26T17:21:46.557Z,2.60
2023-03-26T17:24:27.757Z,2.50
2023-03-26T17:27:34.484Z,2.70
2023-03-26T17:30:23.948Z,2.40
2023-03-26T17:33:11.894Z,2.50
2023-03-26T17:35:51.454Z,3.30
2023-03-26T17:38:25.704Z,4.18
2023-03-26T17:40:56.452Z,4.30
2023-03-26T17:43:47.402Z,8.80
2023-03-26T17:46:41.744Z,7.43
2023-03-26T17:49:12.781Z,5.35
2023-03-26T17:52:13.676Z,5.38
2023-03-26T17:54:47.789Z,3.67
2023-03-26T17:57:31.217Z,2.93
2023-03-26T18:00:01.401Z,2.50
2023-03-26T18:02:44.215Z,3.10
2023-03-26T18:05:16.674Z,4.00
2023-03-26T18:08:04.032Z,3.60
2023-03-26T18:10:39.436Z,3.03
2023-03-26T18:13:32.421Z,2.58
2023-03-26T18:16:24.677Z,2.75
2023-03-26T18:19:01.141Z,2.78
2023-03-26T18:21:32.484Z,2.30
2023-03-26T18:24:03.148Z,1.93
2023-03-26T18:26:55.351Z,1.90
2023-03-26T18:29:27.990Z,1.92
2023-03-26T18:31:58.615Z,1.90
2023-03-26T18:34:31.641Z,2.10
2023-03-26T18:37:11.590Z,1.93
2023-03-26T18:39:39.510Z,2.40
2023-03-26T18:42:07.838Z,2.28
2023-03-26T18:44:37.178Z,2.83
2023-03-26T18:47:10.269Z,3.58
2023-03-26T18:49:38.506Z,2.90
2023-03-26T18:52:07.727Z,2.40
2023-03-26T18:54:37.259Z,4.18
2023-03-26T18:57:22.110Z,4.32
2023-03-26T18:59:53.309Z,5.43
2023-03-26T19:02:22.443Z,5.53
2023-03-26T19:04:54.785Z,7.75
2023-03-26T19:07:26.937Z,8.55
2023-03-26T19:09:57.322Z,6.65
2023-03-26T19:12:33.277Z,5.57
2023-03-26T19:15:17.482Z,5.33
2023-03-26T19:17:49.049Z,5.03
2023-03-26T19:20:29.861Z,5.57
2023-03-26T19:22:58.438Z,3.67
2023-03-26T19:25:43.728Z,3.42
2023-03-26T19:28:21.202Z,3.87
2023-03-26T19:30:58.591Z,3.53
2023-03-26T19:33:37.548Z,3.80
2023-03-26T19:36:18.377Z,3.97
2023-03-26T19:38:53.844Z,6.80
2023-03-26T19:41:34.871Z,7.43
2023-03-26T19:44:23.465Z,6.38
2023-03-26T19:46:53.020Z,6.07
2023-03-26T19:49:32.690Z,5.72
2023-03-26T19:52:30.051Z,4.68
2023-03-26T19:55:10.511Z,3.73
2023-03-26T19:57:39.207Z,3.17
2023-03-26T20:00:14.198Z,2.72
2023-03-26T20:02:43.377Z,3.05
2023-03-26T20:05:27.691Z,2.85
2023-03-26T20:08:00.309Z,2.93
2023-03-26T20:10:29.046Z,3.22
2023-03-26T20:12:56.927Z,3.00
2023-03-26T20:15:31.932Z,3.08
2023-03-26T20:18:01.419Z,3.05
2023-03-26T20:20:29.300Z,3.13
2023-03-26T20:22:57.843Z,3.10
2023-03-26T20:25:31.143Z,3.22
2023-03-26T20:27:59.981Z,2.90
2023-03-26T20:33:12.521Z,2.97
2023-03-26T20:35:42.293Z,2.85
2023-03-26T20:38:10.981Z,2.83
2023-03-26T20:40:39.928Z,2.90
2023-03-26T20:43:13.281Z,2.70
2023-03-26T20:45:42.061Z,2.40
2023-03-26T20:48:10.820Z,3.15
2023-03-26T20:50:50.437Z,3.25
2023-03-26T20:53:31.006Z,3.00
2023-03-26T20:55:59.272Z,3.10
2023-03-26T20:58:31.517Z,3.23
2023-03-26T21:01:03.437Z,2.80
2023-03-26T21:03:31.473Z,3.10
2023-03-26T21:06:03.277Z,2.85
2023-03-26T21:08:35.159Z,2.83
2023-03-26T21:11:05.945Z,2.40
2023-03-26T21:13:39.563Z,3.20
2023-03-26T21:16:08.558Z,2.85
2023-03-26T21:18:37.185Z,2.85
2023-03-26T21:21:41.668Z,2.80
2023-03-26T21:24:20.834Z,2.50
2023-03-26T21:27:17.991Z,2.93
2023-03-26T21:29:46.282Z,2.58
2023-03-26T21:32:15.144Z,2.65
2023-03-26T21:34:55.640Z,2.45
2023-03-26T21:37:27.136Z,2.42
2023-03-26T21:39:55.151Z,2.40
2023-03-26T21:42:27.162Z,2.83
2023-03-26T21:44:56.791Z,2.78
2023-03-26T21:47:24.859Z,2.75
2023-03-26T21:49:55.148Z,2.65
2023-03-26T21:52:24.322Z,2.60
2023-03-26T21:54:53.106Z,2.63
2023-03-26T21:57:24.407Z,2.80
2023-03-26T22:00:15.522Z,2.90
2023-03-26T22:03:10.786Z,2.55
2023-03-26T22:05:39.171Z,2.40
2023-03-26T22:08:19.959Z,2.55
2023-03-26T22:10:48.604Z,2.70
2023-03-26T22:13:16.855Z,2.63
2023-03-26T22:15:46.777Z,3.08
2023-03-26T22:18:14.850Z,2.90
2023-03-26T22:20:43.819Z,3.00
2023-03-26T22:23:12.822Z,2.90
2023-03-26T22:25:40.744Z,3.13
2023-03-26T22:28:09.411Z,2.78
2023-03-26T22:30:37.655Z,2.80
2023-03-26T22:33:08.831Z,3.45
2023-03-26T22:35:38.150Z,2.88
2023-03-26T22:38:06.197Z,2.80
2023-03-26T22:40:34.188Z,2.90
2023-03-26T22:43:02.221Z,2.60
2023-03-26T22:45:30.597Z,3.13
2023-03-26T22:48:03.521Z,2.70
2023-03-26T22:50:33.883Z,2.80
2023-03-26T22:53:02.063Z,2.40
2023-03-26T22:55:30.403Z,2.20
2023-03-26T22:57:58.891Z,2.20
2023-03-26T23:00:27.127Z,2.30
2023-03-26T23:03:00.925Z,2.20
2023-03-26T23:05:29.870Z,2.03
2023-03-26T23:07:58.620Z,2.10
2023-03-26T23:10:29.168Z,2.60
2023-03-26T23:12:57.274Z,2.03
2023-03-26T23:15:26.445Z,2.20
2023-03-26T23:17:55.333Z,2.67
2023-03-26T23:20:23.717Z,2.00
2023-03-26T23:22:53.039Z,2.20
2023-03-26T23:25:21.251Z,2.42
2023-03-26T23:27:51.056Z,2.42
2023-03-26T23:30:19.606Z,2.50
2023-03-26T23:32:47.564Z,2.40
2023-03-26T23:35:16.104Z,2.60
2023-03-26T23:37:43.915Z,2.60
2023-03-26T23:40:14.325Z,2.35
2023-03-26T23:42:42.844Z,2.60
2023-03-26T23:45:12.560Z,2.30
2023-03-26T23:47:42.737Z,2.30
2023-03-26T23:50:11.639Z,2.60
2023-03-26T23:52:39.842Z,2.60
2023-03-26T23:55:08.732Z,2.08
2023-03-26T23:57:37.471Z,2.10
